Time;durP1;ratioP1;P1;durP2;ratioP2;P2;SDS_P1;SDS_P2;PMS_P1;PMS_P2;Temp;Humidity;BMP_temperature;BMP_pressure;BME280_temperature;BME280_humidity;BME280_pressure;Samples;Min_cycle;Max_cycle;Signal;HPM_P1;HPM_P2
2022/02/25 00:02:00;;;;;;;11.43;3.17;;;4.30;70.70;;;;;;5089554;28;20461;-81
2022/02/25 00:04:28;;;;;;;10.13;2.70;;;4.30;70.70;;;;;;5093344;28;20048;-80
2022/02/25 00:06:55;;;;;;;15.20;2.92;;;4.20;70.70;;;;;;5093276;28;20055;-80
2022/02/25 00:09:22;;;;;;;10.45;2.63;;;4.20;70.80;;;;;;5093206;28;20044;-81
2022/02/25 00:11:49;;;;;;;15.85;3.10;;;4.20;70.90;;;;;;5092900;28;20044;-80
2022/02/25 00:14:16;;;;;;;14.18;3.20;;;4.20;70.90;;;;;;5092264;28;20048;-81
2022/02/25 00:16:44;;;;;;;13.35;3.13;;;4.20;71.00;;;;;;5093532;28;20417;-80
2022/02/25 00:19:12;;;;;;;15.35;3.92;;;4.20;71.00;;;;;;5092925;28;20460;-80
2022/02/25 00:21:39;;;;;;;12.45;2.60;;;4.10;71.00;;;;;;5093069;28;20040;-80
2022/02/25 00:24:06;;;;;;;11.23;2.75;;;4.10;71.10;;;;;;5093134;28;20055;-80
2022/02/25 00:26:33;;;;;;;10.10;2.80;;;4.10;71.20;;;;;;5076865;28;20044;-80
2022/02/25 00:28:59;;;;;;;14.20;3.42;;;4.10;71.20;;;;;;5093251;28;20105;-80
2022/02/25 00:31:27;;;;;;;13.75;2.90;;;4.10;71.30;;;;;;5092793;28;20055;-81
2022/02/25 00:33:54;;;;;;;14.63;3.40;;;4.10;71.30;;;;;;5092763;28;20130;-80
2022/02/25 00:36:21;;;;;;;9.43;2.70;;;4.00;71.30;;;;;;5092878;28;20071;-80
2022/02/25 00:38:50;;;;;;;13.10;3.20;;;4.00;71.40;;;;;;5092773;28;20043;-80
2022/02/25 00:41:17;;;;;;;9.50;2.70;;;4.00;71.40;;;;;;5092837;28;20059;-80
2022/02/25 00:43:44;;;;;;;11.25;2.67;;;4.00;71.50;;;;;;5090697;28;20082;-80
2022/02/25 00:46:11;;;;;;;10.25;2.80;;;4.00;71.50;;;;;;5092546;28;20510;-80
2022/02/25 00:48:38;;;;;;;12.57;2.38;;;4.00;71.50;;;;;;5092425;28;20094;-80
2022/02/25 00:51:05;;;;;;;13.15;3.08;;;4.00;71.50;;;;;;5092545;28;20052;-81
2022/02/25 00:53:32;;;;;;;13.38;2.92;;;4.00;71.60;;;;;;5076185;28;20052;-80
2022/02/25 00:55:59;;;;;;;12.07;3.05;;;3.90;71.60;;;;;;5092966;28;20506;-80
2022/02/25 00:58:26;;;;;;;10.57;3.00;;;4.00;71.70;;;;;;5092056;28;20052;-80
2022/02/25 01:00:55;;;;;;;18.15;2.95;;;4.00;71.70;;;;;;5092303;28;20043;-81
2022/02/25 01:03:22;;;;;;;15.00;2.78;;;3.90;71.80;;;;;;5092210;28;20410;-82
2022/02/25 01:05:49;;;;;;;11.40;2.72;;;3.90;71.80;;;;;;5092261;28;20044;-82
2022/02/25 01:08:16;;;;;;;12.93;3.08;;;3.90;71.80;;;;;;5092264;28;20063;-81
2022/02/25 01:10:43;;;;;;;13.25;2.80;;;3.90;71.90;;;;;;5092652;28;20415;-81
2022/02/25 01:13:10;;;;;;;12.73;3.35;;;3.90;71.90;;;;;;5091829;28;20403;-81
2022/02/25 01:15:37;;;;;;;11.50;2.47;;;3.90;72.00;;;;;;5092187;28;20070;-80
2022/02/25 01:18:06;;;;;;;10.27;3.22;;;3.90;72.00;;;;;;5092055;28;20059;-80
2022/02/25 01:20:33;;;;;;;14.63;2.75;;;3.90;72.00;;;;;;5075816;28;20048;-80
2022/02/25 01:23:00;;;;;;;10.82;2.08;;;3.90;72.10;;;;;;5088343;28;20044;-81
2022/02/25 01:25:27;;;;;;;15.48;3.50;;;3.90;72.10;;;;;;5091509;28;20044;-81
2022/02/25 01:27:54;;;;;;;11.93;2.33;;;3.90;72.10;;;;;;5091526;28;20048;-81
2022/02/25 01:30:21;;;;;;;11.55;3.00;;;3.80;72.10;;;;;;5091744;28;20052;-80
2022/02/25 01:32:48;;;;;;;11.55;2.25;;;3.80;72.20;;;;;;5091867;28;20127;-80
2022/02/25 01:35:15;;;;;;;14.27;2.80;;;3.80;72.20;;;;;;5092167;28;20093;-80
2022/02/25 01:37:44;;;;;;;10.73;2.22;;;3.80;72.20;;;;;;5092363;28;20402;-81
2022/02/25 01:40:11;;;;;;;16.55;2.88;;;3.80;72.30;;;;;;5091748;28;20048;-81
2022/02/25 01:42:50;;;;;;;15.30;2.65;;;3.80;72.30;;;;;;5091345;28;20874;-80
2022/02/25 01:45:18;;;;;;;15.57;3.22;;;3.70;72.40;;;;;;5091782;28;20429;-80
2022/02/25 01:47:46;;;;;;;11.15;2.83;;;3.70;72.40;;;;;;5091818;28;20044;-80
2022/02/25 01:50:14;;;;;;;12.05;2.70;;;3.70;72.40;;;;;;5091880;28;20044;-82
2022/02/25 01:52:57;;;;;;;11.63;2.80;;;3.70;72.40;;;;;;5091892;28;20109;-80
2022/02/25 01:55:24;;;;;;;13.45;2.55;;;3.70;72.50;;;;;;5096077;28;20098;-80
2022/02/25 01:57:51;;;;;;;15.10;2.97;;;3.70;72.50;;;;;;5086283;28;20044;-80
2022/02/25 02:00:18;;;;;;;8.88;2.22;;;3.70;72.60;;;;;;5091691;28;20110;-81
2022/02/25 02:02:45;;;;;;;13.73;2.70;;;3.70;72.60;;;;;;5091583;28;20093;-81
2022/02/25 02:05:14;;;;;;;13.25;2.88;;;3.70;72.60;;;;;;5091682;28;20040;-81
2022/02/25 02:07:41;;;;;;;12.70;2.88;;;3.70;72.70;;;;;;5091944;28;20536;-81
2022/02/25 02:10:08;;;;;;;13.07;2.63;;;3.70;72.70;;;;;;5091037;28;20050;-81
2022/02/25 02:12:35;;;;;;;12.43;2.33;;;3.70;72.80;;;;;;5091419;28;20419;-80
2022/02/25 02:15:04;;;;;;;14.15;2.35;;;3.60;72.80;;;;;;5091532;28;20109;-81
2022/02/25 02:17:32;;;;;;;7.95;2.22;;;3.70;72.80;;;;;;5091540;28;20139;-81
2022/02/25 02:20:01;;;;;;;12.18;2.33;;;3.70;72.90;;;;;;5091909;28;20040;-80
2022/02/25 02:22:28;;;;;;;18.05;2.78;;;3.60;72.90;;;;;;5091322;28;20048;-80
2022/02/25 02:24:56;;;;;;;18.67;3.40;;;3.70;73.00;;;;;;5090975;28;20044;-80
2022/02/25 02:28:17;;;;;;;12.05;2.60;;;3.60;73.10;;;;;;5091262;28;20271;-80
2022/02/25 02:30:12;;;;;;;11.70;2.30;;;3.60;73.10;;;;;;5091214;28;20055;-80
2022/02/25 02:32:40;;;;;;;18.40;3.08;;;3.60;73.20;;;;;;5091368;28;20480;-81
2022/02/25 02:35:07;;;;;;;13.88;2.70;;;3.60;73.20;;;;;;5091735;28;20097;-81
2022/02/25 02:37:34;;;;;;;13.02;2.38;;;3.60;73.30;;;;;;5094291;28;20059;-81
2022/02/25 02:40:02;;;;;;;14.38;2.53;;;3.50;73.40;;;;;;5094617;28;20502;-81
2022/02/25 02:42:29;;;;;;;14.52;2.67;;;3.60;73.50;;;;;;5076855;28;20044;-81
2022/02/25 02:44:56;;;;;;;17.42;2.92;;;3.60;73.70;;;;;;5095006;28;20047;-81
2022/02/25 02:47:24;;;;;;;11.45;2.25;;;3.60;73.80;;;;;;5094747;28;20048;-81
2022/02/25 02:49:50;;;;;;;11.80;2.35;;;3.50;74.00;;;;;;5095461;28;20048;-80
2022/02/25 02:52:18;;;;;;;13.45;2.88;;;3.60;74.10;;;;;;5094582;28;20048;-81
2022/02/25 02:54:45;;;;;;;11.43;2.42;;;3.60;74.20;;;;;;5094383;28;20109;-81
2022/02/25 02:57:12;;;;;;;16.42;2.80;;;3.60;74.40;;;;;;5094664;28;20097;-80
2022/02/25 02:59:38;;;;;;;13.75;2.92;;;3.60;74.50;;;;;;5094753;28;20468;-80
2022/02/25 03:02:05;;;;;;;14.15;2.70;;;3.60;74.60;;;;;;5094951;28;20047;-80
2022/02/25 03:04:32;;;;;;;12.73;2.28;;;3.60;74.70;;;;;;5094462;28;20429;-80
2022/02/25 03:06:59;;;;;;;14.38;2.80;;;3.60;74.80;;;;;;5094547;28;20040;-81
2022/02/25 03:09:26;;;;;;;14.88;2.80;;;3.60;74.90;;;;;;5094079;28;20056;-82
2022/02/25 03:11:54;;;;;;;14.48;2.40;;;3.70;75.00;;;;;;5094469;28;20093;-81
2022/02/25 03:14:21;;;;;;;12.73;2.35;;;3.70;75.00;;;;;;5094618;28;20048;-81
2022/02/25 03:16:48;;;;;;;13.50;2.60;;;3.60;75.10;;;;;;5094992;28;20414;-81
2022/02/25 03:19:15;;;;;;;15.80;2.88;;;3.60;75.20;;;;;;5094231;28;20048;-80
2022/02/25 03:21:42;;;;;;;12.18;2.92;;;3.60;75.30;;;;;;5094275;28;20044;-81
2022/02/25 03:24:11;;;;;;;15.85;2.90;;;3.60;75.40;;;;;;5093801;28;20084;-81
2022/02/25 03:26:38;;;;;;;16.27;2.60;;;3.60;75.50;;;;;;5094229;28;20036;-81
2022/02/25 03:29:05;;;;;;;17.35;3.33;;;3.60;75.60;;;;;;5094553;28;20052;-82
2022/02/25 03:31:32;;;;;;;14.55;2.72;;;3.60;75.70;;;;;;5093952;28;20048;-81
2022/02/25 03:33:59;;;;;;;12.00;2.30;;;3.60;75.70;;;;;;5093945;28;20451;-80
2022/02/25 03:36:26;;;;;;;15.18;2.80;;;3.60;75.90;;;;;;5094043;28;20113;-81
2022/02/25 03:38:53;;;;;;;13.63;2.92;;;3.60;75.90;;;;;;5093719;28;20040;-81
2022/02/25 03:41:20;;;;;;;16.60;2.60;;;3.60;76.00;;;;;;5094122;28;20048;-80
2022/02/25 03:43:47;;;;;;;10.20;2.45;;;3.60;76.10;;;;;;5094356;28;20055;-81
2022/02/25 03:46:14;;;;;;;10.98;2.78;;;3.60;76.20;;;;;;5093783;28;20055;-80
2022/02/25 03:48:41;;;;;;;12.95;2.75;;;3.60;76.30;;;;;;5075514;28;20048;-80
2022/02/25 03:51:08;;;;;;;19.15;2.63;;;3.60;76.40;;;;;;5093662;28;20440;-80
2022/02/25 03:53:35;;;;;;;10.75;2.53;;;3.60;76.50;;;;;;5093403;28;20109;-82
2022/02/25 03:56:02;;;;;;;16.45;3.35;;;3.60;76.60;;;;;;5090002;28;20402;-81
2022/02/25 03:58:29;;;;;;;17.05;3.58;;;3.70;76.70;;;;;;5093449;28;20237;-80
2022/02/25 04:00:56;;;;;;;13.93;2.55;;;3.60;76.80;;;;;;5093570;28;20117;-80
2022/02/25 04:03:23;;;;;;;14.13;3.58;;;3.60;77.00;;;;;;5093356;28;20472;-80
2022/02/25 04:05:50;;;;;;;16.05;2.67;;;3.60;77.10;;;;;;5093601;28;20040;-81
2022/02/25 04:08:17;;;;;;;11.55;2.75;;;3.60;77.20;;;;;;5093178;28;20502;-80
2022/02/25 04:10:44;;;;;;;15.65;2.65;;;3.60;77.20;;;;;;5093867;28;20448;-80
2022/02/25 04:13:12;;;;;;;17.63;3.00;;;3.60;77.30;;;;;;5093334;28;20052;-80
2022/02/25 04:15:39;;;;;;;15.73;2.70;;;3.60;77.40;;;;;;5093295;28;20044;-80
2022/02/25 04:18:06;;;;;;;13.90;3.03;;;3.60;77.40;;;;;;5093259;28;20055;-80
2022/02/25 04:20:33;;;;;;;17.88;2.63;;;3.60;77.50;;;;;;5076493;28;20391;-81
2022/02/25 04:22:59;;;;;;;14.57;2.65;;;3.60;77.60;;;;;;5093865;28;20052;-81
2022/02/25 04:25:27;;;;;;;13.77;2.78;;;3.60;77.70;;;;;;5092969;28;20399;-80
2022/02/25 04:27:54;;;;;;;15.27;2.60;;;3.60;77.80;;;;;;5092862;28;20053;-80
2022/02/25 04:30:23;;;;;;;17.45;3.13;;;3.60;77.90;;;;;;5092940;28;20453;-82
2022/02/25 04:32:50;;;;;;;14.70;3.10;;;3.60;78.00;;;;;;5092974;28;20048;-82
2022/02/25 04:35:19;;;;;;;16.48;3.00;;;3.60;78.00;;;;;;5092793;28;20453;-80
2022/02/25 04:37:46;;;;;;;12.98;2.78;;;3.60;78.10;;;;;;5073453;28;20048;-81
2022/02/25 04:40:13;;;;;;;16.58;2.58;;;3.60;78.20;;;;;;5092674;28;20048;-82
2022/02/25 04:42:40;;;;;;;13.95;2.70;;;3.70;78.30;;;;;;5092646;28;20048;-81
2022/02/25 04:45:08;;;;;;;14.65;2.70;;;3.70;78.40;;;;;;5092484;28;20089;-80
2022/02/25 04:47:36;;;;;;;16.55;3.05;;;3.70;78.40;;;;;;5076982;28;20070;-80
2022/02/25 04:50:04;;;;;;;14.20;2.47;;;3.70;78.50;;;;;;5092949;28;20076;-80
2022/02/25 04:52:31;;;;;;;15.13;2.90;;;3.70;78.60;;;;;;5092566;28;20387;-82
2022/02/25 04:54:58;;;;;;;14.95;2.63;;;3.70;78.70;;;;;;5092441;28;20044;-81
2022/02/25 04:57:25;;;;;;;14.05;2.65;;;3.70;78.80;;;;;;5074300;28;20592;-80
2022/02/25 04:59:57;;;;;;;15.57;2.92;;;3.70;78.90;;;;;;5091763;28;20048;-80
2022/02/25 05:02:24;;;;;;;12.52;2.58;;;3.70;78.90;;;;;;5092484;28;20101;-80
2022/02/25 05:04:51;;;;;;;19.70;3.20;;;3.70;79.00;;;;;;5092586;28;20060;-80
2022/02/25 05:07:18;;;;;;;12.73;2.55;;;3.70;79.10;;;;;;5092089;28;20100;-80
2022/02/25 05:09:45;;;;;;;16.80;2.80;;;3.70;79.10;;;;;;5074279;28;20066;-80
2022/02/25 05:12:12;;;;;;;13.57;2.60;;;3.70;79.20;;;;;;5092223;28;20464;-80
2022/02/25 05:20:23;;;;;;;13.85;3.33;;;3.70;79.40;;;;;;5088800;28;20509;-80
2022/02/25 05:22:59;;;;;;;10.70;2.08;;;3.70;79.40;;;;;;5092606;28;20105;-80
2022/02/25 05:25:28;;;;;;;17.00;2.95;;;3.70;79.40;;;;;;5091848;28;20056;-81
2022/02/25 05:27:58;;;;;;;15.30;2.50;;;3.80;79.50;;;;;;5091848;28;20052;-81
2022/02/25 05:30:26;;;;;;;18.80;2.95;;;3.80;79.50;;;;;;5092017;28;20056;-80
2022/02/25 05:32:54;;;;;;;11.15;2.60;;;3.80;79.60;;;;;;5091971;28;20044;-81
2022/02/25 05:35:21;;;;;;;11.55;2.70;;;3.80;79.60;;;;;;5091976;28;20113;-80
2022/02/25 05:37:49;;;;;;;16.95;3.10;;;3.80;79.70;;;;;;5092394;28;20079;-81
2022/02/25 05:40:17;;;;;;;16.48;3.13;;;3.80;79.70;;;;;;5091765;28;20097;-81
2022/02/25 05:42:45;;;;;;;16.08;2.95;;;3.80;79.80;;;;;;5091621;28;20044;-81
2022/02/25 05:45:13;;;;;;;12.43;2.40;;;3.70;79.80;;;;;;5091693;28;20098;-81
2022/02/25 05:47:41;;;;;;;13.07;2.63;;;3.70;79.80;;;;;;5091494;28;20063;-81
2022/02/25 05:50:12;;;;;;;15.25;2.92;;;3.80;79.90;;;;;;5092055;28;20052;-80
2022/02/25 05:52:41;;;;;;;17.95;2.72;;;3.80;79.90;;;;;;5091361;28;20150;-80
2022/02/25 05:55:13;;;;;;;14.70;3.25;;;3.80;79.90;;;;;;5091557;28;20050;-80
2022/02/25 05:57:40;;;;;;;14.50;2.88;;;3.80;79.90;;;;;;5091550;28;20502;-81
2022/02/25 06:00:09;;;;;;;16.75;2.65;;;3.80;80.00;;;;;;5091716;28;20056;-80
2022/02/25 06:02:37;;;;;;;12.77;2.63;;;3.80;80.00;;;;;;5075540;28;20036;-82
2022/02/25 06:05:04;;;;;;;16.55;3.28;;;3.80;80.00;;;;;;5092374;28;20066;-81
2022/02/25 06:07:31;;;;;;;16.55;3.00;;;3.80;80.00;;;;;;5091555;28;20501;-81
2022/02/25 06:09:58;;;;;;;20.50;3.03;;;3.80;80.00;;;;;;5092032;28;20098;-80
2022/02/25 06:12:25;;;;;;;14.80;2.65;;;3.80;80.00;;;;;;5095613;28;20048;-81
2022/02/25 06:14:52;;;;;;;15.48;2.90;;;3.80;80.10;;;;;;5095687;28;20051;-80
2022/02/25 06:17:19;;;;;;;19.33;3.10;;;3.80;80.10;;;;;;5095394;28;20098;-80
2022/02/25 06:19:46;;;;;;;12.27;2.88;;;3.80;80.10;;;;;;5094075;28;20051;-80
2022/02/25 06:22:16;;;;;;;13.10;3.33;;;3.80;80.20;;;;;;5095425;28;20059;-80
2022/02/25 06:24:43;;;;;;;21.08;3.83;;;3.80;80.20;;;;;;5095310;28;20048;-81
2022/02/25 06:27:10;;;;;;;15.07;3.22;;;3.80;80.20;;;;;;5095303;28;20056;-81
2022/02/25 06:29:37;;;;;;;14.43;3.20;;;3.80;80.20;;;;;;5095525;28;20097;-80
2022/02/25 06:32:04;;;;;;;13.13;2.75;;;3.80;80.20;;;;;;5095565;28;20044;-81
2022/02/25 06:34:35;;;;;;;16.00;2.88;;;3.80;80.20;;;;;;5095248;28;20105;-82
2022/02/25 06:37:04;;;;;;;18.55;3.10;;;3.80;80.20;;;;;;5095054;28;20494;-81
2022/02/25 06:39:31;;;;;;;15.05;2.97;;;3.80;80.20;;;;;;5095125;28;20230;-81
2022/02/25 06:41:58;;;;;;;19.20;3.95;;;3.80;80.20;;;;;;5095021;28;20047;-81
2022/02/25 06:44:25;;;;;;;16.85;2.80;;;3.70;80.20;;;;;;5077082;28;20060;-81
2022/02/25 06:46:52;;;;;;;15.18;2.72;;;3.70;80.20;;;;;;5095198;28;20040;-81
2022/02/25 06:49:19;;;;;;;13.27;3.05;;;3.70;80.20;;;;;;5095062;28;20048;-80
2022/02/25 06:51:46;;;;;;;9.77;2.90;;;3.70;80.20;;;;;;5092421;28;20049;-80
2022/02/25 06:54:13;;;;;;;17.50;2.80;;;3.70;80.30;;;;;;5094883;28;20055;-80
2022/02/25 06:56:40;;;;;;;15.32;3.00;;;3.70;80.20;;;;;;5094796;28;20130;-80
2022/02/25 06:59:07;;;;;;;19.45;2.90;;;3.70;80.30;;;;;;5095294;28;20059;-80
2022/02/25 07:01:37;;;;;;;13.73;3.28;;;3.70;80.30;;;;;;5094312;28;20460;-80
2022/02/25 07:04:04;;;;;;;19.40;3.47;;;3.70;80.30;;;;;;5076557;28;20105;-80
2022/02/25 07:06:33;;;;;;;16.30;3.50;;;3.70;80.30;;;;;;5094572;28;20048;-80
2022/02/25 07:09:01;;;;;;;16.05;3.03;;;3.70;80.40;;;;;;5094644;28;20051;-80
2022/02/25 07:11:28;;;;;;;16.23;3.05;;;3.70;80.40;;;;;;5094590;28;20048;-80
2022/02/25 07:13:55;;;;;;;13.90;3.05;;;3.70;80.40;;;;;;5095040;28;20059;-80
2022/02/25 07:16:21;;;;;;;15.07;3.15;;;3.70;80.40;;;;;;5094096;28;20040;-80
2022/02/25 07:18:48;;;;;;;19.70;3.47;;;3.60;80.40;;;;;;5094243;28;20410;-80
2022/02/25 07:21:16;;;;;;;12.05;2.90;;;3.60;80.40;;;;;;5093918;28;20044;-80
2022/02/25 07:23:43;;;;;;;18.30;2.95;;;3.60;80.50;;;;;;5093904;28;20521;-80
2022/02/25 07:26:10;;;;;;;13.38;2.50;;;3.60;80.50;;;;;;5094555;28;20048;-81
2022/02/25 07:28:37;;;;;;;15.07;2.95;;;3.60;80.50;;;;;;5094351;28;20513;-80
2022/02/25 07:31:04;;;;;;;16.75;3.47;;;3.60;80.60;;;;;;5092034;28;20044;-81
2022/02/25 07:33:31;;;;;;;18.58;3.10;;;3.60;80.60;;;;;;5092133;28;20040;-82
2022/02/25 07:35:58;;;;;;;18.17;3.90;;;3.60;80.60;;;;;;5093214;28;20530;-80
2022/02/25 07:38:26;;;;;;;20.50;3.53;;;3.60;80.70;;;;;;5103973;28;20060;-80
2022/02/25 07:40:53;;;;;;;13.98;2.60;;;3.60;80.70;;;;;;5094224;28;20494;-80
2022/02/25 07:43:22;;;;;;;23.50;3.83;;;3.60;80.80;;;;;;5093136;28;20120;-81
2022/02/25 07:45:50;;;;;;;11.65;3.03;;;3.70;80.80;;;;;;5087350;28;20043;-82
2022/02/25 07:48:18;;;;;;;18.73;2.85;;;3.60;80.80;;;;;;5093479;28;20051;-82
2022/02/25 07:50:47;;;;;;;20.40;3.15;;;3.60;80.90;;;;;;5101916;28;20120;-80
2022/02/25 07:53:14;;;;;;;19.85;3.50;;;3.70;80.90;;;;;;5093154;28;20059;-81
2022/02/25 07:55:44;;;;;;;17.63;3.63;;;3.70;81.00;;;;;;5093904;28;20105;-80
2022/02/25 07:58:12;;;;;;;16.65;3.67;;;3.70;81.00;;;;;;5092613;28;20454;-80
2022/02/25 08:00:40;;;;;;;21.40;3.60;;;3.70;81.00;;;;;;5092998;28;20101;-81
2022/02/25 08:03:07;;;;;;;19.52;3.60;;;3.70;81.10;;;;;;5093183;28;20052;-82
2022/02/25 08:05:34;;;;;;;20.92;3.92;;;3.80;81.10;;;;;;5077042;28;20040;-80
2022/02/25 08:08:04;;;;;;;19.08;3.88;;;3.80;81.20;;;;;;5089085;28;20044;-80
2022/02/25 08:10:35;;;;;;;14.80;3.72;;;3.80;81.20;;;;;;5092964;28;20044;-80
2022/02/25 08:13:05;;;;;;;23.35;4.30;;;3.80;81.30;;;;;;5092294;28;20215;-81
2022/02/25 08:15:35;;;;;;;14.93;3.60;;;3.80;81.30;;;;;;5092941;28;20522;-82
2022/02/25 08:18:04;;;;;;;12.80;2.90;;;3.90;81.40;;;;;;5092941;28;20106;-81
2022/02/25 08:20:32;;;;;;;22.70;3.95;;;3.90;81.40;;;;;;5092509;28;20044;-80
2022/02/25 08:23:01;;;;;;;22.58;3.50;;;3.90;81.40;;;;;;5093302;28;20055;-80
2022/02/25 08:25:33;;;;;;;22.65;3.85;;;3.90;81.50;;;;;;5092502;28;20056;-80
2022/02/25 08:28:00;;;;;;;18.08;3.15;;;4.00;81.60;;;;;;5087886;28;20097;-80
2022/02/25 08:30:27;;;;;;;18.65;3.28;;;4.00;81.60;;;;;;5092661;28;20433;-80
2022/02/25 08:33:00;;;;;;;21.20;4.50;;;4.00;81.70;;;;;;5092598;28;20505;-80
2022/02/25 08:35:29;;;;;;;19.67;3.67;;;4.00;81.70;;;;;;5091579;28;20047;-80
2022/02/25 08:37:56;;;;;;;19.27;3.60;;;4.10;81.80;;;;;;5092980;28;20052;-80
2022/02/25 08:40:24;;;;;;;17.35;3.88;;;4.10;81.80;;;;;;5092361;28;20090;-80
2022/02/25 08:42:51;;;;;;;17.27;3.60;;;4.20;81.80;;;;;;5091677;28;20091;-80
2022/02/25 08:45:18;;;;;;;24.25;4.18;;;4.20;81.90;;;;;;5092382;28;20048;-80
2022/02/25 08:47:46;;;;;;;26.00;4.60;;;4.30;81.90;;;;;;5092363;28;20044;-81
2022/02/25 08:50:16;;;;;;;26.15;4.22;;;4.30;82.00;;;;;;5092201;28;20108;-80
2022/02/25 08:52:53;;;;;;;25.42;4.63;;;4.30;82.00;;;;;;5092597;28;20048;-80
2022/02/25 08:55:21;;;;;;;28.77;5.20;;;4.40;82.10;;;;;;5092185;28;20048;-81
2022/02/25 08:57:48;;;;;;;24.60;4.38;;;4.40;82.10;;;;;;5091464;28;20048;-80
2022/02/25 09:00:18;;;;;;;22.45;4.10;;;4.50;82.10;;;;;;5092109;28;20052;-80
2022/02/25 09:02:47;;;;;;;21.40;4.32;;;4.60;82.20;;;;;;5092118;28;20048;-80
2022/02/25 09:05:15;;;;;;;21.20;4.10;;;4.60;82.20;;;;;;5091677;28;20122;-80
2022/02/25 09:07:43;;;;;;;23.55;4.43;;;4.70;82.20;;;;;;5092549;28;20061;-80
2022/02/25 09:10:12;;;;;;;21.23;4.45;;;4.70;82.20;;;;;;5091827;28;20513;-80
2022/02/25 09:12:39;;;;;;;25.08;4.00;;;4.80;82.20;;;;;;5073270;28;20498;-81
2022/02/25 09:15:08;;;;;;;23.75;3.97;;;4.90;82.20;;;;;;5091695;28;20052;-81
2022/02/25 09:17:36;;;;;;;17.10;3.97;;;4.90;82.20;;;;;;5076296;28;20047;-80
2022/02/25 09:20:04;;;;;;;27.85;4.72;;;5.00;82.20;;;;;;5092171;28;20075;-80
2022/02/25 09:22:31;;;;;;;17.38;3.83;;;5.10;82.20;;;;;;5091863;28;20497;-80
2022/02/25 09:24:58;;;;;;;24.33;4.32;;;5.20;82.20;;;;;;5073361;28;20051;-80
2022/02/25 09:27:27;;;;;;;24.40;3.85;;;5.30;82.20;;;;;;5095444;28;20105;-80
2022/02/25 09:29:54;;;;;;;27.08;4.28;;;5.30;82.10;;;;;;5091609;28;20460;-80
2022/02/25 09:32:21;;;;;;;26.10;4.57;;;5.40;82.10;;;;;;5091668;28;20040;-80
2022/02/25 09:34:48;;;;;;;23.52;4.30;;;5.50;82.00;;;;;;5091872;28;20059;-80
2022/02/25 09:37:16;;;;;;;25.95;4.43;;;5.60;81.90;;;;;;5091462;28;20048;-80
2022/02/25 09:39:43;;;;;;;14.35;4.38;;;5.70;81.80;;;;;;5091181;28;20093;-80
2022/02/25 09:42:10;;;;;;;25.40;4.53;;;5.80;81.70;;;;;;5091332;28;20044;-79
2022/02/25 09:44:37;;;;;;;27.70;3.35;;;5.90;81.60;;;;;;5091224;28;20518;-80
2022/02/25 09:47:04;;;;;;;23.20;3.85;;;6.00;81.40;;;;;;5092037;28;20514;-80
2022/02/25 09:49:31;;;;;;;16.45;3.30;;;6.10;81.20;;;;;;5091288;28;20048;-80
2022/02/25 09:51:59;;;;;;;17.88;2.80;;;6.30;81.00;;;;;;5073331;28;20040;-80
2022/02/25 09:54:26;;;;;;;18.80;3.30;;;6.40;80.80;;;;;;5091162;28;20573;-80
2022/02/25 09:56:54;;;;;;;20.67;3.75;;;6.50;80.50;;;;;;5090878;28;20040;-80
2022/02/25 09:59:22;;;;;;;19.60;3.45;;;6.60;80.20;;;;;;5091523;28;20387;-80
2022/02/25 10:01:49;;;;;;;25.88;3.78;;;6.80;79.80;;;;;;5091675;28;20051;-80
2022/02/25 10:04:20;;;;;;;14.18;2.75;;;6.90;79.40;;;;;;5091086;28;20052;-80
2022/02/25 10:06:47;;;;;;;16.75;3.22;;;7.10;79.00;;;;;;5091255;28;20044;-80
2022/02/25 10:09:39;;;;;;;24.83;3.78;;;7.20;78.60;;;;;;5090740;28;20056;-80
2022/02/25 10:12:11;;;;;;;13.57;2.90;;;7.40;78.10;;;;;;5084167;28;20105;-80
2022/02/25 10:14:46;;;;;;;14.15;2.90;;;7.50;77.80;;;;;;5075588;28;20591;-80
2022/02/25 10:17:17;;;;;;;19.02;3.40;;;7.70;77.30;;;;;;5084739;28;20056;-80
2022/02/25 10:19:49;;;;;;;16.50;2.95;;;7.90;76.80;;;;;;5091197;28;20044;-80
2022/02/25 10:22:45;;;;;;;24.83;3.72;;;8.00;76.40;;;;;;5090997;28;20122;-80
2022/02/25 10:25:14;;;;;;;13.55;2.63;;;8.10;76.00;;;;;;5084345;28;20048;-81
2022/02/25 10:27:44;;;;;;;14.27;3.33;;;8.30;75.70;;;;;;5095043;28;20090;-80
2022/02/25 10:30:17;;;;;;;15.52;2.53;;;8.40;75.10;;;;;;5091004;28;20121;-80
2022/02/25 10:32:54;;;;;;;18.27;3.10;;;8.50;74.70;;;;;;5091054;28;20044;-80
2022/02/25 10:35:41;;;;;;;11.82;3.10;;;8.60;74.40;;;;;;5090447;28;20109;-80
2022/02/25 10:38:15;;;;;;;17.85;2.72;;;8.80;73.90;;;;;;5087403;28;20114;-80
2022/02/25 10:40:43;;;;;;;16.67;2.83;;;8.90;73.60;;;;;;5090779;28;20040;-80
2022/02/25 10:43:27;;;;;;;17.85;2.67;;;9.00;73.30;;;;;;5090761;28;20051;-80
2022/02/25 10:46:03;;;;;;;11.23;2.20;;;9.20;73.00;;;;;;5090660;28;20051;-80
2022/02/25 10:48:32;;;;;;;11.00;2.33;;;9.30;72.70;;;;;;5090576;28;20068;-80
2022/02/25 10:50:59;;;;;;;12.35;2.38;;;9.40;72.30;;;;;;5090964;28;20055;-80
2022/02/25 10:53:27;;;;;;;13.27;2.47;;;9.50;71.90;;;;;;5090375;28;20109;-80
2022/02/25 10:56:08;;;;;;;16.77;2.83;;;9.60;71.50;;;;;;5091028;28;20063;-80
2022/02/25 10:58:39;;;;;;;14.60;3.28;;;9.70;71.10;;;;;;5093697;28;20101;-80
2022/02/25 11:01:15;;;;;;;14.43;2.95;;;9.70;70.80;;;;;;5094337;28;20097;-79
2022/02/25 11:03:56;;;;;;;12.43;2.63;;;9.80;70.40;;;;;;5093996;28;20509;-80
2022/02/25 11:06:24;;;;;;;12.82;2.80;;;9.90;69.90;;;;;;5076141;28;20567;-80
2022/02/25 11:08:58;;;;;;;13.13;2.70;;;9.90;69.70;;;;;;5094386;28;20052;-81
2022/02/25 11:11:25;;;;;;;10.25;2.50;;;9.90;69.50;;;;;;5093841;28;20097;-81
2022/02/25 11:13:53;;;;;;;13.02;2.47;;;9.90;69.40;;;;;;5094654;28;20102;-81
2022/02/25 11:16:21;;;;;;;13.95;2.30;;;9.90;69.20;;;;;;5094021;28;20097;-81
2022/02/25 11:19:08;;;;;;;14.30;2.80;;;10.00;69.10;;;;;;5094023;28;20071;-81
2022/02/25 11:21:36;;;;;;;13.20;2.45;;;10.00;68.90;;;;;;5093787;28;20101;-81
2022/02/25 11:24:04;;;;;;;12.48;2.83;;;10.00;68.80;;;;;;5094051;28;20615;-81
2022/02/25 11:26:31;;;;;;;12.32;2.42;;;10.10;68.70;;;;;;5097892;28;20048;-80
2022/02/25 11:29:01;;;;;;;11.52;2.47;;;10.10;68.60;;;;;;5094656;28;20097;-81
2022/02/25 11:31:35;;;;;;;15.77;2.92;;;10.20;68.40;;;;;;5093787;28;20052;-81
2022/02/25 11:34:05;;;;;;;17.27;3.35;;;10.20;68.20;;;;;;5093307;28;20445;-81
2022/02/25 11:36:51;;;;;;;12.90;2.85;;;10.20;68.10;;;;;;5075318;28;20464;-81
2022/02/25 11:39:23;;;;;;;15.32;2.90;;;10.30;67.90;;;;;;5093805;28;20044;-80
2022/02/25 11:41:55;;;;;;;16.15;2.75;;;10.30;67.70;;;;;;5093315;28;20048;-81
2022/02/25 11:44:21;;;;;;;14.48;3.03;;;10.30;67.60;;;;;;5093773;28;20048;-81
2022/02/25 11:46:48;;;;;;;16.48;2.75;;;10.30;67.50;;;;;;5093967;28;20203;-81
2022/02/25 11:49:24;;;;;;;16.00;2.90;;;10.40;67.50;;;;;;5092993;28;20044;-80
2022/02/25 11:51:51;;;;;;;15.55;2.95;;;10.40;67.60;;;;;;5092828;28;20048;-80
2022/02/25 11:54:21;;;;;;;16.75;2.88;;;10.40;67.60;;;;;;5093398;28;20048;-80
2022/02/25 11:56:57;;;;;;;16.63;2.75;;;10.40;67.70;;;;;;5093154;28;20105;-80
2022/02/25 11:59:33;;;;;;;15.98;3.28;;;10.50;67.70;;;;;;5093259;28;20101;-80
2022/02/25 12:02:17;;;;;;;14.73;3.08;;;10.50;67.70;;;;;;5093595;28;20090;-82
2022/02/25 12:04:45;;;;;;;14.57;2.50;;;10.60;67.60;;;;;;5093234;28;20109;-82
2022/02/25 12:07:13;;;;;;;16.63;2.85;;;10.60;67.60;;;;;;5092955;28;20497;-82
2022/02/25 12:09:46;;;;;;;14.73;2.78;;;10.60;67.60;;;;;;5092524;28;20047;-81
2022/02/25 12:12:23;;;;;;;14.55;2.72;;;10.60;67.40;;;;;;5093063;28;20074;-81
2022/02/25 12:15:15;;;;;;;13.93;2.45;;;10.70;67.20;;;;;;5092970;28;20478;-81
2022/02/25 12:17:45;;;;;;;16.02;2.88;;;10.70;67.10;;;;;;5077605;28;20092;-81
2022/02/25 12:20:17;;;;;;;18.13;2.80;;;10.70;67.00;;;;;;5092892;28;20502;-81
2022/02/25 12:22:49;;;;;;;15.45;2.88;;;10.70;66.90;;;;;;5092917;28;20055;-82
2022/02/25 12:25:43;;;;;;;11.57;2.10;;;10.70;66.60;;;;;;5092310;28;20104;-81
2022/02/25 12:28:10;;;;;;;14.30;2.50;;;10.70;66.30;;;;;;5089984;28;20055;-81
2022/02/25 12:30:46;;;;;;;12.07;2.53;;;10.60;66.20;;;;;;5092602;28;20058;-81
2022/02/25 12:33:44;;;;;;;11.30;2.45;;;10.60;66.20;;;;;;5074260;28;20533;-81
2022/02/25 12:36:13;;;;;;;11.07;2.72;;;10.60;66.20;;;;;;5092479;28;20496;-81
2022/02/25 12:38:44;;;;;;;10.43;2.03;;;10.60;66.30;;;;;;5092697;28;20047;-81
2022/02/25 12:41:23;;;;;;;13.60;2.70;;;10.60;66.30;;;;;;5074452;28;20467;-81
2022/02/25 12:43:53;;;;;;;14.98;2.58;;;10.60;66.30;;;;;;5091455;28;20071;-81
2022/02/25 12:46:23;;;;;;;9.82;2.15;;;10.60;66.30;;;;;;5092281;28;20052;-81
2022/02/25 12:48:51;;;;;;;13.38;2.20;;;10.60;66.30;;;;;;5091575;28;20432;-81
2022/02/25 12:51:21;;;;;;;13.55;2.30;;;10.70;66.20;;;;;;5092329;28;20051;-81
2022/02/25 12:53:52;;;;;;;11.73;2.35;;;10.70;66.30;;;;;;5092061;28;20456;-81
2022/02/25 12:56:25;;;;;;;12.68;2.38;;;10.80;66.20;;;;;;5092375;28;20102;-81
2022/02/25 12:58:54;;;;;;;12.95;2.85;;;10.80;66.20;;;;;;5091275;28;20559;-81
2022/02/25 13:01:23;;;;;;;14.00;2.03;;;10.90;66.10;;;;;;5091645;28;20048;-81